CYGE

Golden Airport

Golden, British Columbia, Canada
METAR CYGE 240000Z 34004KT 310V080 20SM VCSH SCT050 BKN100 BKN160 OVC210 14/06 A2993 RMK CU4AC2AC1CI2 AC TR SH NE+S LAST STFD OBS/NEXT 241200Z SLP145 DENSITY ALT 3000FT
Observed Flight Rules
Sep-24 @ 00:00 UTC (4 hours ago) Visual Flight Rules
Wind Visibility Clouds
340° at 4 knots 20 miles
  • Scattered at 5,000' AGL
  • Broken at 10,000' AGL
  • Broken at 16,000' AGL
  • Overcast at 21,000' AGL
Temperatures Readings
Current 14°C / 57°F
Dewpoint 6°C / 43°F
Humidity 59%
Altimeter 29.93" Hg
Pressure 1014.5 hPa
Elevation 785
METAR CYGE 240000Z 34004KT 310V080 20SM VCSH SCT050 BKN100 BKN160 OVC210 14/06 A2993 RMK CU4AC2AC1CI2 AC TR SH NE+S LAST STFD OBS/NEXT 241200Z SLP145 DENSITY ALT 3000FT
Observed Flight Rules
Sep-24 @ 00:00 UTC
(4 hours ago)
VFR
Wind Visibility
340° at 4 knots 20 miles
Clouds
  • Scattered at 5,000' AGL
  • Broken at 10,000' AGL
  • Broken at 16,000' AGL
  • Overcast at 21,000' AGL
Temperature Dewpoint
14°C / 57°F 6°C / 43°F
Humidity Altimeter Pressure
59% 29.93" Hg 1014.5 hPa